createdAt,value
2018-03-14T00:00:46.485Z,97.50
2018-03-14T00:05:19.781Z,97.50
2018-03-14T00:09:53.082Z,97.40
2018-03-14T00:14:26.398Z,97.50
2018-03-14T00:19:00.403Z,97.60
2018-03-14T00:23:33.734Z,97.70
2018-03-14T00:28:07.007Z,97.70
2018-03-14T00:32:40.348Z,97.80
2018-03-14T00:37:14.121Z,97.70
2018-03-14T00:41:48.481Z,97.90
2018-03-14T00:46:22.482Z,97.90
2018-03-14T00:50:56.544Z,97.90
2018-03-14T00:55:30.050Z,97.90
2018-03-14T01:00:03.465Z,97.80
2018-03-14T01:04:37.179Z,98.20
2018-03-14T01:09:10.475Z,98.30
2018-03-14T01:13:44.099Z,98.50
2018-03-14T01:18:17.514Z,98.50
2018-03-14T01:22:50.812Z,98.80
2018-03-14T01:27:24.238Z,99.00
2018-03-14T01:31:57.513Z,99.20
2018-03-14T01:36:30.798Z,99.30
2018-03-14T01:41:04.186Z,99.30
2018-03-14T01:45:37.482Z,99.30
2018-03-14T01:50:10.818Z,99.40
2018-03-14T01:54:44.918Z,99.50
2018-03-14T01:59:18.326Z,99.50
2018-03-14T02:03:51.653Z,99.30
2018-03-14T02:08:25.253Z,99.30
2018-03-14T02:12:58.519Z,99.30
2018-03-14T02:17:31.814Z,99.30
2018-03-14T02:22:05.277Z,98.80
2018-03-14T02:26:38.874Z,98.90
2018-03-14T02:31:13.287Z,99.10
2018-03-14T02:35:47.976Z,99.30
2018-03-14T02:40:21.244Z,99.20
2018-03-14T02:44:55.509Z,99.70
2018-03-14T02:49:30.169Z,99.30
2018-03-14T02:54:03.678Z,99.30
2018-03-14T02:58:37.936Z,99.40
2018-03-14T03:03:11.226Z,99.70
2018-03-14T03:07:44.537Z,99.30
2018-03-14T03:12:18.268Z,99.30
2018-03-14T03:16:51.544Z,99.50
2018-03-14T03:21:25.589Z,99.90
2018-03-14T03:25:59.490Z,99.80
2018-03-14T03:30:33.524Z,99.90
2018-03-14T03:35:06.785Z,99.90
2018-03-14T03:39:40.170Z,99.90
2018-03-14T03:44:13.456Z,99.90
2018-03-14T03:48:47.292Z,99.70
2018-03-14T03:53:20.767Z,99.60
2018-03-14T03:57:54.938Z,99.90
2018-03-14T04:02:29.070Z,99.90
2018-03-14T04:07:02.366Z,99.90
2018-03-14T04:11:35.758Z,99.90
2018-03-14T04:16:09.926Z,99.90
2018-03-14T04:20:43.295Z,99.90
2018-03-14T04:25:17.331Z,99.90
2018-03-14T04:29:50.579Z,99.90
2018-03-14T04:34:24.042Z,99.90
2018-03-14T04:38:58.082Z,99.90
2018-03-14T04:43:31.406Z,99.90
2018-03-14T04:48:05.210Z,99.90
2018-03-14T04:52:38.498Z,99.90
2018-03-14T04:57:12.635Z,99.90
2018-03-14T05:01:46.784Z,99.90
2018-03-14T05:06:21.330Z,99.90
2018-03-14T05:10:54.713Z,99.90
2018-03-14T05:15:29.449Z,99.90
2018-03-14T05:20:03.584Z,99.90
2018-03-14T05:24:37.631Z,99.90
2018-03-14T05:29:11.580Z,99.90
2018-03-14T05:33:44.944Z,99.90
2018-03-14T05:38:19.178Z,99.90
2018-03-14T05:42:52.542Z,99.90
2018-03-14T05:47:25.805Z,99.90
2018-03-14T05:52:00.743Z,99.90
2018-03-14T05:56:34.774Z,99.90
2018-03-14T06:01:08.997Z,99.90
2018-03-14T06:05:43.432Z,99.90
2018-03-14T06:10:17.560Z,99.90
2018-03-14T06:14:52.036Z,99.90
2018-03-14T06:19:26.022Z,99.90
2018-03-14T06:24:00.059Z,99.90
2018-03-14T06:28:33.416Z,99.90
2018-03-14T06:33:06.794Z,99.90
2018-03-14T06:37:40.074Z,99.90
2018-03-14T06:42:14.437Z,99.60
2018-03-14T06:46:48.078Z,99.70
2018-03-14T06:51:21.439Z,99.90
2018-03-14T06:55:55.469Z,98.90
2018-03-14T07:00:41.665Z,98.00
2018-03-14T07:05:27.805Z,97.00
2018-03-14T07:10:01.219Z,97.00
2018-03-14T07:14:34.486Z,96.10
2018-03-14T07:19:07.755Z,94.90
2018-03-14T07:23:41.123Z,93.80
2018-03-14T07:28:15.168Z,89.70
2018-03-14T07:32:48.626Z,89.60
2018-03-14T07:37:22.275Z,86.40
2018-03-14T07:41:56.438Z,74.30
2018-03-14T07:46:30.098Z,74.20
2018-03-14T07:51:03.409Z,66.40
2018-03-14T07:55:36.770Z,67.50
2018-03-14T08:00:10.158Z,67.90
2018-03-14T08:04:44.387Z,73.70
2018-03-14T08:09:18.426Z,77.70
2018-03-14T08:13:51.792Z,77.60
2018-03-14T08:18:25.766Z,81.80
2018-03-14T08:22:59.035Z,81.70
2018-03-14T08:27:32.301Z,83.40
2018-03-14T08:32:05.575Z,83.10
2018-03-14T08:36:39.622Z,78.10
2018-03-14T08:41:12.890Z,78.10
2018-03-14T08:45:46.922Z,60.50
2018-03-14T08:50:20.985Z,53.90
2018-03-14T08:54:54.264Z,53.70
2018-03-14T08:59:28.407Z,53.50
2018-03-14T09:04:01.916Z,53.50
2018-03-14T09:08:35.266Z,51.70
2018-03-14T09:13:08.549Z,51.60
2018-03-14T09:17:42.181Z,52.00
2018-03-14T09:22:15.866Z,46.10
2018-03-14T09:26:49.903Z,42.20
2018-03-14T09:31:23.550Z,42.10
2018-03-14T09:35:56.918Z,38.50
2018-03-14T09:40:31.046Z,41.70
2018-03-14T09:45:05.108Z,40.90
2018-03-14T09:49:38.487Z,40.80
2018-03-14T09:54:13.149Z,40.30
2018-03-14T09:58:47.128Z,40.20
2018-03-14T10:03:22.508Z,40.00
2018-03-14T10:07:56.537Z,43.10
2018-03-14T10:12:30.687Z,42.30
2018-03-14T10:17:04.485Z,42.30
2018-03-14T10:21:38.526Z,46.20
2018-03-14T10:26:11.847Z,46.20
2018-03-14T10:30:45.232Z,43.90
2018-03-14T10:35:18.519Z,43.00
2018-03-14T10:39:51.847Z,42.80
2018-03-14T10:44:25.903Z,41.40
2018-03-14T10:48:59.197Z,41.30
2018-03-14T10:53:32.609Z,41.50
2018-03-14T10:58:06.108Z,41.90
2018-03-14T11:07:48.679Z,42.30
2018-03-14T11:12:21.919Z,45.70
2018-03-14T11:16:55.379Z,43.20
2018-03-14T11:21:29.471Z,44.70
2018-03-14T11:26:02.826Z,44.50
2018-03-14T11:30:37.566Z,39.40
2018-03-14T11:35:11.697Z,41.70
2018-03-14T11:39:45.832Z,41.30
2018-03-14T11:44:19.991Z,40.20
2018-03-14T11:48:53.243Z,40.10
2018-03-14T11:53:27.284Z,39.20
2018-03-14T11:58:01.437Z,37.50
2018-03-14T12:02:34.666Z,37.40
2018-03-14T12:07:08.751Z,40.50
2018-03-14T12:11:42.884Z,39.30
2018-03-14T12:16:17.075Z,43.50
2018-03-14T12:20:50.781Z,43.40
2018-03-14T12:25:24.022Z,43.90
2018-03-14T12:29:57.494Z,39.60
2018-03-14T12:34:30.751Z,46.40
2018-03-14T12:39:04.893Z,52.20
2018-03-14T12:43:39.012Z,48.60
2018-03-14T12:48:13.166Z,46.40
2018-03-14T12:52:46.791Z,46.20
2018-03-14T12:57:20.051Z,44.10
2018-03-14T13:01:53.478Z,50.40
2018-03-14T13:06:27.618Z,48.60
2018-03-14T13:11:01.149Z,48.50
2018-03-14T13:15:34.454Z,46.00
2018-03-14T13:20:08.453Z,50.90
2018-03-14T13:24:42.686Z,55.40
2018-03-14T13:29:16.813Z,52.90
2018-03-14T13:33:51.072Z,56.50
2018-03-14T13:38:24.383Z,56.30
2018-03-14T13:42:58.080Z,55.60
2018-03-14T13:47:32.133Z,51.70
2018-03-14T13:52:05.417Z,51.70
2018-03-14T13:56:38.739Z,51.00
2018-03-14T14:01:12.032Z,51.90
2018-03-14T14:05:45.264Z,54.00
2018-03-14T14:10:18.642Z,55.50
2018-03-14T14:14:52.639Z,57.70
2018-03-14T14:19:26.002Z,57.60
2018-03-14T14:23:59.270Z,56.30
2018-03-14T14:28:32.808Z,56.60
2018-03-14T14:33:06.867Z,55.90
2018-03-14T14:37:40.438Z,55.80
2018-03-14T14:42:14.463Z,55.40
2018-03-14T14:46:48.729Z,56.70
2018-03-14T14:51:22.733Z,56.10
2018-03-14T14:55:56.953Z,56.70
2018-03-14T15:00:31.395Z,56.70
2018-03-14T15:05:05.595Z,56.70
2018-03-14T15:09:38.938Z,57.30
2018-03-14T15:14:13.410Z,55.30
2018-03-14T15:18:46.917Z,55.30
2018-03-14T15:23:20.384Z,55.10
2018-03-14T15:27:54.078Z,55.80
2018-03-14T15:32:28.141Z,57.20
2018-03-14T15:37:02.926Z,62.50
2018-03-14T15:41:36.161Z,62.30
2018-03-14T15:46:09.429Z,60.80
2018-03-14T15:50:42.726Z,57.60
2018-03-14T15:55:16.037Z,57.10
2018-03-14T15:59:49.977Z,57.40
2018-03-14T16:04:23.270Z,58.60
2018-03-14T16:08:56.587Z,57.80
2018-03-14T16:13:30.195Z,58.40
2018-03-14T16:18:03.474Z,59.00
2018-03-14T16:22:36.716Z,61.60
2018-03-14T16:27:09.971Z,61.60
2018-03-14T16:31:43.411Z,60.90
2018-03-14T16:36:17.847Z,62.20
2018-03-14T16:40:51.886Z,64.90
2018-03-14T16:45:25.178Z,64.80
2018-03-14T16:49:59.196Z,62.30
2018-03-14T16:54:32.465Z,62.20
2018-03-14T16:59:06.343Z,63.30
2018-03-14T17:03:39.690Z,64.20
2018-03-14T17:08:12.978Z,65.60
2018-03-14T17:12:46.212Z,67.40
2018-03-14T17:17:19.584Z,67.20
2018-03-14T17:21:53.599Z,68.60
2018-03-14T17:26:27.842Z,72.40
2018-03-14T17:31:01.157Z,72.30
2018-03-14T17:35:34.448Z,74.60
2018-03-14T17:40:08.578Z,74.30
2018-03-14T17:44:42.613Z,75.10
2018-03-14T17:49:15.935Z,75.10
2018-03-14T17:53:49.250Z,73.40
2018-03-14T17:58:22.753Z,73.60
2018-03-14T18:02:56.248Z,73.70
2018-03-14T18:07:30.240Z,75.40
2018-03-14T18:12:03.502Z,75.30
2018-03-14T18:16:36.996Z,75.90
2018-03-14T18:21:11.057Z,77.40
2018-03-14T18:25:44.433Z,77.40
2018-03-14T18:30:19.881Z,79.00
2018-03-14T18:34:53.312Z,78.90
2018-03-14T18:39:26.635Z,80.00
2018-03-14T18:43:59.916Z,79.70
2018-03-14T18:48:34.185Z,83.40
2018-03-14T18:53:07.447Z,83.30
2018-03-14T18:57:41.160Z,82.10
2018-03-14T19:02:15.922Z,80.00
2018-03-14T19:06:51.858Z,79.20
2018-03-14T19:11:25.112Z,79.20
2018-03-14T19:15:59.138Z,80.10
2018-03-14T19:20:33.153Z,80.90
2018-03-14T19:25:08.961Z,81.20
2018-03-14T19:29:42.537Z,81.20
2018-03-14T19:34:16.919Z,81.30
2018-03-14T19:38:50.212Z,81.30
2018-03-14T19:43:23.511Z,81.60
2018-03-14T19:47:56.944Z,81.50
2018-03-14T19:52:31.085Z,82.00
2018-03-14T19:57:04.572Z,82.30
2018-03-14T20:01:38.274Z,82.40
2018-03-14T20:06:12.504Z,82.40
2018-03-14T20:10:45.912Z,82.50
2018-03-14T20:15:19.198Z,82.60
2018-03-14T20:19:53.296Z,82.60
2018-03-14T20:24:26.751Z,83.10
2018-03-14T20:29:00.793Z,83.20
2018-03-14T20:33:34.084Z,83.20
2018-03-14T20:38:08.317Z,83.60
2018-03-14T20:42:42.356Z,84.30
2018-03-14T20:47:15.756Z,84.20
2018-03-14T20:51:49.804Z,84.80
2018-03-14T20:56:23.190Z,84.80
2018-03-14T21:00:57.246Z,85.60
2018-03-14T21:05:30.547Z,85.60
2018-03-14T21:10:03.848Z,86.00
2018-03-14T21:14:37.073Z,86.00
2018-03-14T21:19:10.350Z,86.00
2018-03-14T21:23:44.482Z,86.40
2018-03-14T21:28:18.725Z,86.80
2018-03-14T21:32:52.428Z,86.80
2018-03-14T21:37:26.472Z,87.10
2018-03-14T21:42:00.491Z,87.10
2018-03-14T21:46:34.525Z,87.30
2018-03-14T21:51:07.924Z,87.30
2018-03-14T21:55:41.480Z,87.60
2018-03-14T22:00:15.086Z,88.00
2018-03-14T22:04:48.593Z,88.00
2018-03-14T22:09:21.822Z,87.80
2018-03-14T22:13:55.180Z,87.80
2018-03-14T22:18:29.820Z,88.40
2018-03-14T22:23:04.178Z,88.40
2018-03-14T22:27:37.708Z,88.40
2018-03-14T22:32:11.618Z,88.20
2018-03-14T22:36:44.881Z,88.80
2018-03-14T22:41:18.310Z,89.20
2018-03-14T22:45:52.346Z,90.00
2018-03-14T22:50:26.729Z,90.00
2018-03-14T22:54:59.985Z,90.00
2018-03-14T22:59:34.019Z,90.40
2018-03-14T23:04:07.315Z,90.40
2018-03-14T23:08:41.462Z,90.60
2018-03-14T23:13:14.751Z,90.60
2018-03-14T23:17:48.808Z,90.90
2018-03-14T23:22:22.811Z,90.90
2018-03-14T23:26:56.837Z,91.60
2018-03-14T23:31:31.110Z,91.70
2018-03-14T23:36:04.384Z,91.70
2018-03-14T23:40:37.779Z,92.00
2018-03-14T23:45:11.908Z,92.40
2018-03-14T23:49:46.261Z,92.40
2018-03-14T23:54:19.524Z,92.40
2018-03-14T23:58:52.786Z,92.60
